Time;durP1;ratioP1;P1;durP2;ratioP2;P2;SDS_P1;SDS_P2;PMS_P1;PMS_P2;Temp;Humidity;BMP_temperature;BMP_pressure;BME280_temperature;BME280_humidity;BME280_pressure;Samples;Min_cycle;Max_cycle;Signal;HPM_P1;HPM_P2
2022/09/24 00:01:42;;;;;;;;;15.67;15.00;;;;;16.86;84.41;100543.59;4876260;29;45421;-84
2022/09/24 00:04:11;;;;;;;;;15.67;13.67;;;;;16.84;82.88;100546.31;4876937;29;45498;-84
2022/09/24 00:06:46;;;;;;;;;15.33;13.00;;;;;16.89;83.87;100543.56;4876799;29;45517;-84
2022/09/24 00:09:14;;;;;;;;;13.67;13.00;;;;;16.92;84.04;100541.72;4876445;29;46884;-84
2022/09/24 00:11:42;;;;;;;;;18.33;14.00;;;;;16.96;84.43;100538.06;4877608;29;45477;-84
2022/09/24 00:14:08;;;;;;;;;12.33;11.00;;;;;16.96;83.28;100535.38;4877505;29;45443;-83
2022/09/24 00:16:34;;;;;;;;;13.00;13.00;;;;;16.97;82.82;100536.28;4876889;29;45517;-84
2022/09/24 00:19:03;;;;;;;;;12.67;12.33;;;;;16.93;82.91;100522.00;4861201;29;48054;-84
2022/09/24 00:21:34;;;;;;;;;11.33;10.67;;;;;16.94;82.96;100522.88;4877066;29;45404;-84
2022/09/24 00:27:06;;;;;;;;;12.67;11.33;;;;;16.92;83.81;100522.91;4877025;29;44773;-84
2022/09/24 00:29:34;;;;;;;;;11.33;11.00;;;;;16.93;83.61;100530.06;4860303;29;47670;-85
2022/09/24 00:32:00;;;;;;;;;13.50;11.00;;;;;16.94;83.05;100536.31;4875427;29;45509;-84
2022/09/24 00:34:25;;;;;;;;;13.33;13.00;;;;;16.90;83.35;100524.72;4877340;29;45436;-84
2022/09/24 00:36:52;;;;;;;;;11.67;9.67;;;;;16.85;83.31;100526.63;4860374;29;45559;-85
2022/09/24 00:39:18;;;;;;;;;16.33;14.67;;;;;16.90;82.85;100532.78;4859057;29;47877;-84
2022/09/24 00:41:46;;;;;;;;;11.00;11.00;;;;;16.87;83.26;100526.59;4875256;29;45385;-84
2022/09/24 00:44:34;;;;;;;;;13.00;13.00;;;;;16.91;83.62;100531.00;4859171;29;44783;-84
2022/09/24 00:46:59;;;;;;;;;14.33;14.33;;;;;16.89;83.55;100527.47;4857644;29;45446;-83
2022/09/24 00:49:25;;;;;;;;;11.33;11.00;;;;;16.93;83.96;100524.69;4874931;29;45414;-83
2022/09/24 00:51:51;;;;;;;;;12.00;12.00;;;;;16.93;84.05;100522.00;4858597;29;45899;-84
2022/09/24 00:54:25;;;;;;;;;8.67;8.67;;;;;16.97;83.79;100523.72;4875243;29;44806;-84
2022/09/24 00:56:52;;;;;;;;;15.33;15.33;;;;;16.98;83.08;100524.63;4875762;29;45749;-84
2022/09/24 00:59:22;;;;;;;;;15.33;14.33;;;;;16.94;84.54;100515.72;4875118;29;46202;-84
2022/09/24 01:01:50;;;;;;;;;12.00;12.00;;;;;17.01;84.39;100527.28;4875853;29;45318;-84
2022/09/24 01:04:21;;;;;;;;;17.00;14.67;;;;;16.98;85.65;100514.75;4858523;29;44809;-84
2022/09/24 01:06:49;;;;;;;;;13.33;13.33;;;;;16.99;84.54;100516.53;4875518;29;45631;-85
2022/09/24 01:09:21;;;;;;;;;16.67;14.00;;;;;16.98;85.72;100517.44;4858329;29;47246;-85
2022/09/24 01:12:06;;;;;;;;;17.00;15.33;;;;;16.99;85.98;100519.22;4875001;29;45359;-85
2022/09/24 01:15:05;;;;;;;;;16.00;13.67;;;;;16.94;86.52;100522.88;4873171;29;45393;-85
2022/09/24 01:17:46;;;;;;;;;10.67;10.67;;;;;16.82;85.23;100520.41;4873780;29;45465;-84
2022/09/24 01:20:21;;;;;;;;;14.33;12.67;;;;;16.78;86.79;100520.41;4857457;29;47414;-84
2022/09/24 01:22:59;;;;;;;;;16.00;15.33;;;;;16.79;87.32;100524.00;4857826;29;45379;-84
2022/09/24 01:25:57;;;;;;;;;13.67;13.33;;;;;16.78;88.51;100520.41;4857403;29;45344;-84
2022/09/24 01:28:34;;;;;;;;;16.67;16.33;;;;;16.77;91.96;100523.13;4857584;29;45538;-84
2022/09/24 01:31:07;;;;;;;;;14.00;14.00;;;;;16.68;94.26;100512.50;4859099;29;47244;-83
2022/09/24 01:33:36;;;;;;;;;16.33;15.00;;;;;16.73;96.44;100516.91;4859197;29;45350;-83
2022/09/24 01:36:11;;;;;;;;;17.00;15.00;;;;;16.76;97.67;100510.59;4875325;29;45424;-84
2022/09/24 01:39:24;;;;;;;;;15.33;13.67;;;;;16.76;98.51;100510.59;4875491;29;45434;-84
2022/09/24 01:41:51;;;;;;;;;14.00;14.00;;;;;16.70;99.22;100500.81;4876178;29;45327;-85
2022/09/24 01:44:17;;;;;;;;;11.33;11.33;;;;;16.71;100.00;100496.38;4859940;29;45473;-84
2022/09/24 01:46:43;;;;;;;;;14.67;13.00;;;;;16.69;100.00;100498.19;4876788;29;44802;-84
2022/09/24 01:49:09;;;;;;;;;16.33;13.33;;;;;16.66;100.00;100499.09;4877089;29;45363;-85
2022/09/24 01:51:49;;;;;;;;;14.67;14.00;;;;;16.53;100.00;100476.03;4860432;29;46971;-85
2022/09/24 01:54:25;;;;;;;;;18.00;18.00;;;;;16.48;100.00;100469.84;4876082;29;45434;-84
2022/09/24 01:56:59;;;;;;;;;16.33;16.33;;;;;16.51;100.00;100475.19;4860787;29;45426;-85
2022/09/24 01:59:31;;;;;;;;;17.00;16.00;;;;;16.48;100.00;100475.22;4877320;29;45490;-84
2022/09/24 02:02:03;;;;;;;;;20.33;18.00;;;;;16.42;100.00;100462.78;4877128;29;45889;-84
2022/09/24 02:05:25;;;;;;;;;17.00;12.00;;;;;16.45;100.00;100473.47;4875858;29;45519;-85
2022/09/24 02:08:01;;;;;;;;;13.67;12.00;;;;;16.38;100.00;100469.06;4875265;29;45495;-85
2022/09/24 02:10:32;;;;;;;;;16.67;14.00;;;;;16.33;100.00;100468.28;4875141;29;46001;-85
2022/09/24 02:13:04;;;;;;;;;23.50;21.00;;;;;16.28;100.00;100462.06;4877177;29;46517;-84
2022/09/24 02:15:40;;;;;;;;;20.00;18.67;;;;;16.24;100.00;100453.19;4876877;29;45455;-84
2022/09/24 02:18:09;;;;;;;;;17.33;16.33;;;;;16.23;100.00;100461.25;4874039;29;45468;-83
2022/09/24 02:20:38;;;;;;;;;23.33;21.33;;;;;16.22;100.00;100471.13;4875093;29;45731;-84
2022/09/24 02:23:09;;;;;;;;;17.33;16.00;;;;;16.16;100.00;100460.47;4858061;29;47164;-84
2022/09/24 02:25:47;;;;;;;;;19.33;17.00;;;;;16.22;100.00;100462.16;4858804;29;45491;-84
2022/09/24 02:28:13;;;;;;;;;17.33;16.33;;;;;16.29;100.00;100456.69;4875183;29;45351;-84
2022/09/24 02:30:47;;;;;;;;;13.00;13.00;;;;;16.31;100.00;100457.53;4858805;29;45370;-83
2022/09/24 02:35:58;;;;;;;;;17.00;13.67;;;;;16.35;100.00;100456.59;4874789;29;45340;-84
2022/09/24 02:38:23;;;;;;;;;17.67;16.00;;;;;16.35;100.00;100456.59;4857754;29;44798;-83
2022/09/24 02:40:50;;;;;;;;;16.67;16.67;;;;;16.35;100.00;100461.97;4873735;29;45757;-84
2022/09/24 02:43:15;;;;;;;;;18.00;17.00;;;;;16.34;100.00;100451.25;4857134;29;47481;-85
2022/09/24 02:45:50;;;;;;;;;22.67;19.00;;;;;16.34;100.00;100448.56;4875068;29;45481;-83
2022/09/24 02:48:16;;;;;;;;;15.33;15.00;;;;;16.35;100.00;100444.97;4876046;29;45395;-84
2022/09/24 02:50:41;;;;;;;;;14.00;13.00;;;;;16.35;100.00;100447.66;4874923;29;45422;-83
2022/09/24 02:53:06;;;;;;;;;14.33;12.00;;;;;16.36;100.00;100453.03;4874104;29;45331;-84
2022/09/24 02:55:32;;;;;;;;;17.00;15.00;;;;;16.31;100.00;100437.88;4875988;29;45506;-85
2022/09/24 02:57:57;;;;;;;;;13.33;13.33;;;;;16.39;100.00;100444.03;4874260;29;45352;-85
2022/09/24 03:00:23;;;;;;;;;17.67;17.00;;;;;16.39;100.00;100438.66;4876238;29;45351;-83
2022/09/24 03:02:48;;;;;;;;;20.00;17.00;;;;;16.34;100.00;100443.19;4874062;29;45375;-84
2022/09/24 03:05:17;;;;;;;;;18.00;15.00;;;;;16.32;100.00;100443.25;4874650;29;44878;-85
2022/09/24 03:07:43;;;;;;;;;17.00;17.00;;;;;16.26;100.00;100431.69;4874411;29;45409;-85
2022/09/24 03:10:09;;;;;;;;;16.67;15.67;;;;;16.32;100.00;100439.66;4875014;29;45238;-84
2022/09/24 03:12:34;;;;;;;;;18.00;16.67;;;;;16.31;100.00;100432.53;4861186;29;46771;-84
2022/09/24 03:15:00;;;;;;;;;18.33;17.00;;;;;16.41;100.00;100439.53;4877966;29;44850;-85
2022/09/24 03:17:27;;;;;;;;;12.00;12.00;;;;;16.40;100.00;100435.03;4861939;29;45764;-84
2022/09/24 03:19:52;;;;;;;;;13.00;13.00;;;;;16.38;100.00;100423.44;4877760;29;45402;-85
2022/09/24 03:22:18;;;;;;;;;17.67;13.33;;;;;16.36;100.00;100425.28;4876281;29;45406;-86
2022/09/24 03:24:44;;;;;;;;;11.67;11.00;;;;;16.38;100.00;100428.81;4878130;29;45292;-84
2022/09/24 03:27:09;;;;;;;;;18.00;18.00;;;;;16.37;100.00;100422.56;4877835;29;44803;-84
2022/09/24 03:32:18;;;;;;;;;19.67;17.33;;;;;16.26;100.00;100413.81;4876726;29;45693;-84
2022/09/24 03:34:44;;;;;;;;;15.33;15.33;;;;;16.32;100.00;100423.53;4876910;29;45452;-84
2022/09/24 03:37:10;;;;;;;;;21.00;18.00;;;;;16.33;100.00;100425.34;4875629;29;45437;-83
2022/09/24 03:39:36;;;;;;;;;16.00;14.00;;;;;16.33;100.00;100419.97;4876700;29;44685;-84
2022/09/24 03:42:01;;;;;;;;;14.67;14.67;;;;;16.34;100.00;100421.72;4874237;29;45398;-85
2022/09/24 03:44:27;;;;;;;;;16.67;12.67;;;;;16.29;100.00;100415.56;4859436;29;44804;-85
2022/09/24 03:47:12;;;;;;;;;17.00;17.00;;;;;16.34;100.00;100416.34;4874351;29;45364;-84
2022/09/24 03:49:38;;;;;;;;;16.67;16.00;;;;;16.32;100.00;100408.34;4874972;29;45345;-85
2022/09/24 03:52:03;;;;;;;;;20.00;19.67;;;;;16.36;100.00;100418.13;4859342;29;48141;-85
2022/09/24 03:54:29;;;;;;;;;22.33;21.33;;;;;16.29;100.00;100405.69;4858987;29;45397;-85
2022/09/24 03:56:54;;;;;;;;;19.67;17.33;;;;;16.31;100.00;100411.06;4859440;29;45401;-85
2022/09/24 03:59:19;;;;;;;;;17.67;16.33;;;;;16.30;100.00;100411.94;4874763;28;45472;-85
2022/09/24 04:01:45;;;;;;;;;20.00;20.00;;;;;16.26;100.00;100395.03;4877002;29;45499;-83
2022/09/24 04:04:14;;;;;;;;;22.67;19.33;;;;;16.33;100.00;100412.78;4859641;29;44817;-84
2022/09/24 04:06:39;;;;;;;;;23.00;19.33;;;;;16.30;100.00;100404.81;4875877;29;45300;-84
2022/09/24 04:09:11;;;;;;;;;21.00;18.67;;;;;16.35;100.00;100402.03;4877714;29;44831;-84
2022/09/24 04:11:36;;;;;;;;;21.33;20.00;;;;;16.34;100.00;100406.53;4875578;29;45452;-84
2022/09/24 04:14:02;;;;;;;;;20.00;19.67;;;;;16.36;100.00;100403.81;4876353;29;45487;-84
2022/09/24 04:16:28;;;;;;;;;20.00;17.67;;;;;16.27;100.00;100398.59;4876425;29;45396;-85
2022/09/24 04:18:54;;;;;;;;;22.00;20.67;;;;;16.25;100.00;100400.41;4879391;29;45368;-84
2022/09/24 04:21:20;;;;;;;;;22.00;21.67;;;;;16.25;100.00;100395.03;4877946;29;45547;-85
2022/09/24 04:23:46;;;;;;;;;19.00;19.00;;;;;16.25;100.00;100395.91;4862921;29;44711;-85
2022/09/24 04:26:12;;;;;;;;;18.00;15.33;;;;;16.30;100.00;100398.53;4877098;29;45436;-84
2022/09/24 04:28:37;;;;;;;;;21.67;20.00;;;;;16.31;100.00;100401.19;4860809;29;45345;-84
2022/09/24 04:31:03;;;;;;;;;19.00;16.67;;;;;16.36;100.00;100411.84;4877831;29;45404;-85
2022/09/24 04:33:32;;;;;;;;;19.33;16.00;;;;;16.35;100.00;100407.41;4878593;29;45424;-85
2022/09/24 04:35:58;;;;;;;;;18.67;18.00;;;;;16.25;100.00;100405.78;4877384;29;45388;-84
2022/09/24 04:38:23;;;;;;;;;26.33;22.00;;;;;16.32;100.00;100412.81;4846078;29;45602;-85
2022/09/24 04:40:49;;;;;;;;;25.00;21.67;;;;;16.26;100.00;100402.16;4876780;29;45514;-85
2022/09/24 04:43:14;;;;;;;;;22.67;22.67;;;;;16.36;100.00;100406.47;4876962;29;45473;-84
2022/09/24 04:45:42;;;;;;;;;22.67;19.00;;;;;16.32;100.00;100399.38;4877471;29;45523;-85
2022/09/24 04:48:07;;;;;;;;;20.67;20.67;;;;;16.32;100.00;100405.66;4862708;29;44879;-83
2022/09/24 04:50:33;;;;;;;;;21.67;16.33;;;;;16.30;100.00;100398.53;4878531;29;45279;-84
2022/09/24 04:53:00;;;;;;;;;18.00;15.33;;;;;16.36;100.00;100409.16;4879012;29;45371;-84
2022/09/24 04:55:33;;;;;;;;;19.00;17.00;;;;;16.31;100.00;100413.72;4875406;29;45546;-85
2022/09/24 04:57:58;;;;;;;;;18.00;15.33;;;;;16.30;100.00;100414.63;4878711;29;45706;-85
2022/09/24 05:00:24;;;;;;;;;19.33;17.67;;;;;16.30;100.00;100409.25;4878057;29;46056;-84
2022/09/24 05:02:57;;;;;;;;;17.33;15.33;;;;;16.28;100.00;100412.00;4877445;29;45653;-84
2022/09/24 05:05:23;;;;;;;;;18.33;17.67;;;;;16.31;100.00;100413.72;4861131;29;44767;-84
2022/09/24 05:07:50;;;;;;;;;20.67;16.67;;;;;16.29;100.00;100408.38;4876122;29;44869;-85
2022/09/24 05:10:15;;;;;;;;;15.67;14.67;;;;;16.20;100.00;100393.31;4859783;29;47846;-84
2022/09/24 05:12:41;;;;;;;;;13.33;13.33;;;;;16.28;100.00;100413.75;4858946;29;45749;-84
2022/09/24 05:15:07;;;;;;;;;19.00;17.67;;;;;16.28;100.00;100408.41;4872639;29;45410;-84
2022/09/24 05:17:32;;;;;;;;;15.33;14.00;;;;;16.19;100.00;100406.75;4874924;29;45433;-84
2022/09/24 05:20:00;;;;;;;;;16.67;16.00;;;;;16.29;100.00;100418.22;4857561;29;46992;-84
2022/09/24 05:22:26;;;;;;;;;20.00;17.33;;;;;16.26;100.00;100421.84;4858293;29;45516;-83
2022/09/24 05:24:53;;;;;;;;;17.00;13.67;;;;;16.17;100.00;100409.44;4859805;29;45432;-84
2022/09/24 05:27:20;;;;;;;;;19.33;17.67;;;;;16.22;100.00;100416.53;4875590;29;45439;-85
2022/09/24 05:29:46;;;;;;;;;11.33;11.00;;;;;16.18;100.00;100413.91;4874812;29;45640;-85
2022/09/24 05:32:14;;;;;;;;;18.00;15.67;;;;;16.18;100.00;100411.22;4874158;29;45722;-84
2022/09/24 05:34:42;;;;;;;;;14.67;14.67;;;;;16.23;100.00;100429.94;4873002;29;45872;-84
2022/09/24 05:37:07;;;;;;;;;16.00;15.00;;;;;16.15;100.00;100419.31;4857796;29;44958;-84
2022/09/24 05:39:34;;;;;;;;;15.33;13.67;;;;;16.18;100.00;100437.19;4857327;29;47217;-85
2022/09/24 05:42:00;;;;;;;;;13.67;13.00;;;;;16.16;100.00;100429.16;4857372;29;45445;-86
2022/09/24 05:44:26;;;;;;;;;15.00;15.00;;;;;16.18;100.00;100432.69;4857627;29;44818;-83
2022/09/24 05:46:51;;;;;;;;;14.67;12.00;;;;;16.16;100.00;100433.63;4872241;29;45594;-84
2022/09/24 05:49:17;;;;;;;;;17.00;15.33;;;;;16.17;100.00;100438.06;4872957;29;46815;-84
2022/09/24 05:51:46;;;;;;;;;17.00;16.33;;;;;16.15;100.00;100437.22;4858660;29;45496;-84
2022/09/24 05:54:13;;;;;;;;;16.00;15.67;;;;;16.13;100.00;100436.34;4875081;29;44732;-83
2022/09/24 05:56:39;;;;;;;;;15.67;15.67;;;;;16.13;100.00;100445.28;4860641;29;45341;-81
2022/09/24 05:59:04;;;;;;;;;19.00;16.00;;;;;16.13;100.00;100439.03;4874827;29;45463;-83
2022/09/24 06:01:30;;;;;;;;;17.33;14.67;;;;;16.16;100.00;100439.00;4872498;29;45567;-83
2022/09/24 06:07:18;;;;;;;;;14.67;14.33;;;;;16.13;100.00;100445.28;4873917;29;45482;-82
2022/09/24 06:09:43;;;;;;;;;17.00;15.67;;;;;16.11;100.00;100441.72;4873249;29;46836;-82
2022/09/24 06:12:09;;;;;;;;;13.00;13.00;;;;;16.12;100.00;100454.25;4858318;29;44847;-81
2022/09/24 06:14:35;;;;;;;;;14.33;14.33;;;;;16.13;100.00;100449.75;4873454;29;45447;-82
2022/09/24 06:20:22;;;;;;;;;17.00;15.67;;;;;16.14;100.00;100447.06;4873557;29;45426;-81
2022/09/24 06:22:49;;;;;;;;;15.00;15.00;;;;;16.15;100.00;100459.56;4873626;29;44747;-82
2022/09/24 06:25:14;;;;;;;;;19.00;17.00;;;;;16.14;100.00;100464.97;4873757;29;45286;-81
2022/09/24 06:27:40;;;;;;;;;20.67;18.00;;;;;16.11;100.00;100452.44;4873700;29;44838;-82
2022/09/24 06:30:06;;;;;;;;;21.00;17.33;;;;;16.16;100.00;100466.72;4873359;29;46187;-81
2022/09/24 06:32:32;;;;;;;;;15.00;15.00;;;;;16.12;100.00;100454.25;4875317;29;45418;-80
2022/09/24 06:34:57;;;;;;;;;14.33;14.33;;;;;16.15;100.00;100464.91;4857722;29;45597;-81
2022/09/24 06:37:22;;;;;;;;;19.33;15.00;;;;;16.13;100.00;100471.22;4859272;29;45502;-82
2022/09/24 06:39:48;;;;;;;;;15.00;13.67;;;;;16.07;100.00;100461.44;4875835;29;46502;-83
2022/09/24 06:42:14;;;;;;;;;12.00;12.00;;;;;16.08;100.00;100457.88;4876914;29;44829;-83
2022/09/24 06:44:41;;;;;;;;;12.33;12.00;;;;;15.92;100.00;100440.22;4877296;29;45327;-83
2022/09/24 06:47:11;;;;;;;;;13.67;12.33;;;;;16.04;100.00;100461.50;4881118;29;44751;-83
2022/09/24 06:49:36;;;;;;;;;14.67;10.33;;;;;16.05;100.00;100468.63;4879104;29;45384;-84
2022/09/24 06:52:03;;;;;;;;;11.67;11.67;;;;;16.11;100.00;100473.91;4880109;29;45497;-83
2022/09/24 06:54:28;;;;;;;;;14.33;13.67;;;;;16.17;100.00;100467.59;4879493;29;44870;-82
2022/09/24 06:56:54;;;;;;;;;11.00;9.67;;;;;16.27;100.00;100473.72;4861878;29;45535;-82
2022/09/24 06:59:19;;;;;;;;;13.33;9.33;;;;;16.30;100.00;100474.56;4877923;29;46040;-82
2022/09/24 07:01:45;;;;;;;;;13.00;13.00;;;;;16.35;100.00;100475.38;4878705;29;45464;-82
2022/09/24 07:04:10;;;;;;;;;9.67;9.67;;;;;16.31;100.00;100476.34;4879065;29;45416;-83
2022/09/24 07:12:44;;;;;;;;;10.67;9.33;;;;;16.19;100.00;100469.34;4877957;29;45383;-83
2022/09/24 07:15:10;;;;;;;;;10.67;9.67;;;;;16.19;100.00;100476.50;4861976;29;45474;-85
2022/09/24 07:17:36;;;;;;;;;11.00;9.67;;;;;16.20;100.00;100478.28;4881609;29;44763;-85
2022/09/24 07:20:03;;;;;;;;;11.67;11.00;;;;;16.20;100.00;100480.97;4878257;29;47118;-84
2022/09/24 07:23:26;;;;;;;;;8.67;8.67;;;;;16.19;100.00;100481.88;4864409;29;45379;-82
2022/09/24 07:25:55;;;;;;;;;11.33;9.67;;;;;16.22;100.00;100483.63;4881461;29;45418;-84
2022/09/24 07:28:21;;;;;;;;;12.00;11.00;;;;;16.22;100.00;100476.47;4862539;29;45430;-81
2022/09/24 07:30:54;;;;;;;;;9.67;9.67;;;;;16.32;100.00;100494.22;4875540;29;46749;-85
2022/09/24 07:33:21;;;;;;;;;14.67;11.33;;;;;16.38;100.00;100493.22;4876441;29;45425;-82
2022/09/24 07:35:48;;;;;;;;;13.33;11.67;;;;;16.37;100.00;100484.31;4877934;29;44798;-82
2022/09/24 07:38:15;;;;;;;;;10.00;9.33;;;;;16.39;100.00;100486.97;4876576;29;45450;-82
2022/09/24 07:40:41;;;;;;;;;8.67;8.67;;;;;16.55;100.00;100503.75;4860537;29;48218;-81
2022/09/24 07:43:11;;;;;;;;;16.00;14.33;;;;;16.57;100.00;100505.50;4879590;29;45390;-81
2022/09/24 07:45:37;;;;;;;;;15.33;11.67;;;;;16.56;100.00;100498.38;4875366;29;45449;-83
2022/09/24 07:48:05;;;;;;;;;12.67;12.67;;;;;16.57;100.00;100505.50;4858916;29;45535;-82
2022/09/24 07:50:38;;;;;;;;;14.00;14.00;;;;;16.54;100.00;100493.91;4876887;29;45220;-82
2022/09/24 07:53:05;;;;;;;;;14.67;12.00;;;;;16.63;100.00;100500.97;4875476;29;45390;-83
2022/09/24 07:55:30;;;;;;;;;11.67;11.33;;;;;16.73;100.00;100506.16;4875410;29;45402;-81
2022/09/24 07:57:56;;;;;;;;;11.67;10.00;;;;;16.83;100.00;100504.25;4858364;29;45287;-81
2022/09/24 08:03:46;;;;;;;;;7.67;7.67;;;;;16.99;100.00;100513.84;4874290;29;45529;-82
2022/09/24 08:06:12;;;;;;;;;12.67;12.67;;;;;16.98;100.00;100517.44;4873835;29;45518;-82
2022/09/24 08:08:42;;;;;;;;;17.00;13.33;;;;;16.93;100.00;100516.63;4874448;29;44875;-82
2022/09/24 08:11:11;;;;;;;;;12.33;11.33;;;;;16.90;100.00;100519.34;4874322;29;45559;-83
2022/09/24 08:13:37;;;;;;;;;11.67;11.67;;;;;16.86;100.00;100512.25;4874356;29;45460;-81
2022/09/24 08:16:04;;;;;;;;;15.00;14.00;;;;;16.89;100.00;100528.34;4874666;29;45381;-82
2022/09/24 08:18:31;;;;;;;;;17.00;12.33;;;;;16.86;100.00;100522.13;4875274;29;45522;-81
2022/09/24 08:20:58;;;;;;;;;14.33;13.67;;;;;16.78;100.00;100508.78;4858623;29;46828;-82
2022/09/24 08:23:24;;;;;;;;;12.00;10.00;;;;;16.74;100.00;100507.03;4874781;29;45487;-81
2022/09/24 08:25:49;;;;;;;;;10.67;10.67;;;;;16.81;100.00;100522.19;4874121;29;45220;-81
2022/09/24 08:28:18;;;;;;;;;12.33;12.00;;;;;16.85;100.00;100515.00;4874015;29;45688;-82
2022/09/24 08:30:44;;;;;;;;;10.00;10.00;;;;;16.99;100.00;100524.59;4871257;29;45480;-82
2022/09/24 08:33:10;;;;;;;;;14.33;11.67;;;;;17.04;100.00;100527.19;4856274;29;45585;-82
2022/09/24 08:35:39;;;;;;;;;12.00;12.00;;;;;17.06;100.00;100514.63;4857071;29;45346;-80
2022/09/24 08:38:05;;;;;;;;;9.00;9.00;;;;;17.16;100.00;100528.81;4858211;29;45331;-81
2022/09/24 08:40:45;;;;;;;;;9.00;7.33;;;;;17.19;100.00;100531.47;4857845;29;45202;-82
2022/09/24 08:43:16;;;;;;;;;15.00;15.00;;;;;17.27;100.00;100534.00;4857014;29;45492;-82
2022/09/24 08:48:37;;;;;;;;;14.67;14.67;;;;;17.32;100.00;100524.94;4859660;29;45575;-81
2022/09/24 08:51:12;;;;;;;;;10.00;10.00;;;;;17.43;100.00;100540.00;4855989;29;46268;-80
2022/09/24 08:54:04;;;;;;;;;14.33;14.33;;;;;17.49;100.00;100545.25;4853196;29;45422;-81
2022/09/24 08:56:34;;;;;;;;;13.00;13.00;;;;;17.57;100.00;100546.00;4851329;29;45716;-82
2022/09/24 08:59:03;;;;;;;;;16.00;13.00;;;;;17.50;100.00;100537.19;4869770;29;44858;-82
2022/09/24 09:01:58;;;;;;;;;15.00;14.00;;;;;17.51;100.00;100540.75;4851654;29;47088;-81
2022/09/24 09:04:53;;;;;;;;;15.67;12.67;;;;;17.65;100.00;100543.19;4870343;29;45324;-82
2022/09/24 09:07:39;;;;;;;;;14.00;14.00;;;;;17.72;100.00;100532.31;4834205;29;45331;-83
2022/09/24 09:10:13;;;;;;;;;11.33;11.33;;;;;17.84;100.00;100535.72;4871826;29;45404;-80
2022/09/24 09:12:52;;;;;;;;;14.00;13.00;;;;;17.86;100.00;100537.47;4855994;29;47573;-82
2022/09/24 09:15:24;;;;;;;;;16.67;15.00;;;;;17.99;100.00;100546.16;4856548;29;46269;-82
2022/09/24 09:17:58;;;;;;;;;12.00;11.00;;;;;18.06;100.00;100536.19;4873700;29;44880;-82
2022/09/24 09:20:35;;;;;;;;;12.33;12.33;;;;;18.11;100.00;100535.16;4856785;29;45444;-84
2022/09/24 09:23:21;;;;;;;;;13.33;10.67;;;;;18.30;100.00;100534.78;4873029;29;45204;-81
2022/09/24 09:25:58;;;;;;;;;14.67;10.67;;;;;18.35;100.00;100527.50;4855417;29;45609;-83
2022/09/24 09:28:33;;;;;;;;;15.33;13.33;;;;;18.30;100.00;100507.84;4871825;29;44753;-82
2022/09/24 09:31:19;;;;;;;;;9.67;8.00;;;;;18.58;100.00;100541.34;4873662;29;44868;-82
2022/09/24 09:34:28;;;;;;;;;11.00;11.00;;;;;18.63;100.00;100535.84;4855890;29;47340;-82
2022/09/24 09:37:15;;;;;;;;;11.67;11.00;;;;;18.43;100.00;100514.75;4872829;29;44817;-81
2022/09/24 09:40:08;;;;;;;;;10.00;9.00;;;;;18.72;100.00;100549.13;4871146;29;45437;-81
2022/09/24 09:42:44;;;;;;;;;11.33;10.67;;;;;18.62;100.00;100519.72;4872939;29;45518;-82
2022/09/24 09:45:40;;;;;;;;;13.33;13.33;;;;;18.61;100.00;100507.19;4871703;29;47138;-82
2022/09/24 09:48:11;;;;;;;;;11.00;11.00;;;;;18.64;100.00;100501.72;4855369;29;45360;-83
2022/09/24 09:50:46;;;;;;;;;16.33;16.33;;;;;18.95;100.00;100545.06;4855730;29;45543;-82
2022/09/24 09:53:52;;;;;;;;;14.00;12.00;;;;;18.92;100.00;100537.91;4854329;29;45447;-82
2022/09/24 09:56:50;;;;;;;;;12.00;10.67;;;;;19.06;100.00;100548.34;4816740;29;46239;-82
2022/09/24 09:59:20;;;;;;;;;6.33;6.33;;;;;19.00;100.00;100518.84;4817236;29;45832;-82
2022/09/24 10:01:54;;;;;;;;;13.67;13.00;;;;;18.99;100.00;100509.91;4817364;29;45465;-82
2022/09/24 10:04:38;;;;;;;;;13.00;11.67;;;;;19.36;100.00;100549.41;4816942;29;44938;-82
2022/09/24 10:07:24;;;;;;;;;16.67;16.33;;;;;19.30;100.00;100514.50;4817540;29;48096;-82
2022/09/24 10:10:23;;;;;;;;;17.00;17.00;;;;;19.51;100.00;100544.53;4817238;29;45453;-82
2022/09/24 10:13:11;;;;;;;;;16.67;12.33;;;;;19.57;99.80;100544.38;4779726;29;44897;-83
2022/09/24 10:15:50;;;;;;;;;17.67;17.33;;;;;19.57;100.00;100547.06;4780536;29;45608;-81
2022/09/24 10:18:16;;;;;;;;;14.67;14.67;;;;;19.46;99.60;100531.19;4765038;29;47048;-82
2022/09/24 10:20:47;;;;;;;;;12.33;11.33;;;;;19.49;99.33;100522.13;4782288;29;45502;-83
2022/09/24 10:23:21;;;;;;;;;13.33;13.33;;;;;19.75;99.00;100543.03;4783110;29;45472;-82
2022/09/24 10:26:00;;;;;;;;;18.67;15.33;;;;;19.52;98.74;100484.28;4768414;29;45520;-82
2022/09/24 10:31:25;;;;;;;;;19.00;16.00;;;;;19.93;96.91;100514.66;4784309;29;45386;-82
2022/09/24 10:33:56;;;;;;;;;20.00;19.00;;;;;19.99;95.95;100498.28;4801747;29;45578;-83
2022/09/24 10:36:26;;;;;;;;;15.67;15.67;;;;;20.36;94.74;100535.03;4785140;29;45673;-83
2022/09/24 10:39:07;;;;;;;;;17.33;13.00;;;;;20.51;94.34;100536.38;4800437;29;45498;-83
2022/09/24 10:41:33;;;;;;;;;20.33;20.00;;;;;20.36;92.53;100511.63;4799470;29;45702;-82
2022/09/24 10:44:12;;;;;;;;;23.33;21.00;;;;;20.32;93.17;100503.63;4801070;29;45374;-82
2022/09/24 10:46:59;;;;;;;;;21.33;21.00;;;;;20.58;93.74;100541.59;4801491;29;45438;-83
2022/09/24 10:49:40;;;;;;;;;18.67;17.67;;;;;20.39;93.79;100498.00;4851645;29;47313;-83
2022/09/24 10:52:27;;;;;;;;;17.00;17.00;;;;;20.58;93.27;100525.38;4856017;29;45449;-82
2022/09/24 10:55:11;;;;;;;;;16.00;16.00;;;;;20.34;92.66;100488.25;4856745;29;45507;-82
2022/09/24 10:57:42;;;;;;;;;19.67;18.67;;;;;20.38;91.31;100498.06;4855386;29;45725;-85
2022/09/24 11:00:45;;;;;;;;;22.00;21.33;;;;;20.49;92.07;100531.03;4854458;29;45275;-81
2022/09/24 11:03:48;;;;;;;;;24.67;23.33;;;;;20.38;92.77;100533.19;4856571;29;45502;-82
2022/09/24 11:06:32;;;;;;;;;18.67;18.00;;;;;20.28;91.55;100515.44;4857987;29;45360;-82
2022/09/24 11:09:07;;;;;;;;;27.67;22.00;;;;;20.44;91.58;100524.91;4840545;29;45601;-82
2022/09/24 11:11:59;;;;;;;;;21.33;19.33;;;;;20.67;91.49;100534.16;4857764;29;46182;-82
2022/09/24 11:15:03;;;;;;;;;30.00;23.67;;;;;20.80;91.57;100530.09;4856451;29;45516;-83
2022/09/24 11:17:45;;;;;;;;;22.67;21.67;;;;;20.87;90.25;100537.09;4857000;29;45528;-84
2022/09/24 11:20:28;;;;;;;;;20.00;20.00;;;;;20.91;89.75;100540.59;4854169;29;45497;-83
2022/09/24 11:23:16;;;;;;;;;24.33;23.33;;;;;20.58;89.85;100509.19;4855092;29;46599;-82
2022/09/24 11:26:07;;;;;;;;;21.00;19.33;;;;;20.76;90.03;100550.06;4854966;29;45582;-84
2022/09/24 11:29:01;;;;;;;;;24.00;22.33;;;;;20.65;88.56;100541.41;4853997;29;44889;-83
2022/09/24 11:31:56;;;;;;;;;19.67;17.00;;;;;20.58;89.17;100541.59;4855448;29;45444;-82
2022/09/24 11:34:49;;;;;;;;;23.00;18.33;;;;;20.60;89.90;100532.53;4838200;29;47311;-82
2022/09/24 11:37:48;;;;;;;;;19.67;17.00;;;;;20.57;89.46;100536.19;4854971;29;45882;-80
2022/09/24 11:40:38;;;;;;;;;19.00;19.00;;;;;20.52;89.13;100541.75;4856703;29;44742;-81
2022/09/24 11:43:26;;;;;;;;;17.33;16.33;;;;;20.61;89.80;100529.81;4854486;29;45570;-81
2022/09/24 11:46:10;;;;;;;;;20.33;17.33;;;;;20.71;89.41;100533.13;4853230;29;47195;-84
2022/09/24 11:49:07;;;;;;;;;23.00;20.33;;;;;20.87;88.66;100525.41;4853187;29;45472;-82
2022/09/24 11:51:55;;;;;;;;;23.33;20.67;;;;;21.10;87.77;100524.66;4852821;29;44826;-83
2022/09/24 11:54:49;;;;;;;;;23.67;19.00;;;;;20.98;86.75;100483.53;4853145;29;45662;-83
2022/09/24 11:57:39;;;;;;;;;21.67;21.67;;;;;21.02;86.76;100476.22;4851311;29;47021;-83
2022/09/24 12:00:18;;;;;;;;;21.33;18.00;;;;;21.14;86.92;100480.34;4852611;29;45433;-82